sensor_id;sensor_type;location;lat;lon;timestamp;P1;durP1;ratioP1;P2;durP2;ratioP2
39600;SDS011;25297;44.758;11.310;2023-05-07T00:00:00;16.23;;;12.43;;
39600;SDS011;25297;44.758;11.310;2023-05-07T00:02:26;16.38;;;13.25;;
39600;SDS011;25297;44.758;11.310;2023-05-07T00:04:51;16.70;;;12.82;;
39600;SDS011;25297;44.758;11.310;2023-05-07T00:07:17;17.70;;;13.00;;
39600;SDS011;25297;44.758;11.310;2023-05-07T00:09:43;19.33;;;13.95;;
39600;SDS011;25297;44.758;11.310;2023-05-07T00:12:09;20.50;;;13.45;;
39600;SDS011;25297;44.758;11.310;2023-05-07T00:14:34;16.77;;;13.18;;
39600;SDS011;25297;44.758;11.310;2023-05-07T00:17:00;21.30;;;13.73;;
39600;SDS011;25297;44.758;11.310;2023-05-07T00:19:26;14.80;;;12.85;;
39600;SDS011;25297;44.758;11.310;2023-05-07T00:21:52;18.65;;;14.00;;
39600;SDS011;25297;44.758;11.310;2023-05-07T00:24:21;17.40;;;12.70;;
39600;SDS011;25297;44.758;11.310;2023-05-07T00:26:47;16.98;;;13.45;;
39600;SDS011;25297;44.758;11.310;2023-05-07T00:29:12;18.13;;;14.63;;
39600;SDS011;25297;44.758;11.310;2023-05-07T00:31:38;17.13;;;13.88;;
39600;SDS011;25297;44.758;11.310;2023-05-07T00:34:03;16.20;;;13.55;;
39600;SDS011;25297;44.758;11.310;2023-05-07T00:36:29;16.70;;;13.10;;
39600;SDS011;25297;44.758;11.310;2023-05-07T00:38:56;22.00;;;14.60;;
39600;SDS011;25297;44.758;11.310;2023-05-07T00:41:24;16.27;;;13.27;;
39600;SDS011;25297;44.758;11.310;2023-05-07T00:43:49;18.45;;;13.32;;
39600;SDS011;25297;44.758;11.310;2023-05-07T00:46:16;19.33;;;13.15;;
39600;SDS011;25297;44.758;11.310;2023-05-07T00:48:42;16.00;;;12.65;;
39600;SDS011;25297;44.758;11.310;2023-05-07T00:51:09;19.88;;;14.43;;
39600;SDS011;25297;44.758;11.310;2023-05-07T00:53:36;17.00;;;14.25;;
39600;SDS011;25297;44.758;11.310;2023-05-07T00:56:02;18.48;;;14.15;;
39600;SDS011;25297;44.758;11.310;2023-05-07T00:58:28;17.20;;;13.27;;
39600;SDS011;25297;44.758;11.310;2023-05-07T01:00:53;18.23;;;14.10;;
39600;SDS011;25297;44.758;11.310;2023-05-07T01:03:19;18.42;;;13.57;;
39600;SDS011;25297;44.758;11.310;2023-05-07T01:05:46;20.42;;;13.57;;
39600;SDS011;25297;44.758;11.310;2023-05-07T01:08:13;17.60;;;13.25;;
39600;SDS011;25297;44.758;11.310;2023-05-07T01:10:40;17.30;;;13.52;;
39600;SDS011;25297;44.758;11.310;2023-05-07T01:13:08;16.90;;;13.43;;
39600;SDS011;25297;44.758;11.310;2023-05-07T01:15:38;17.33;;;13.10;;
39600;SDS011;25297;44.758;11.310;2023-05-07T01:18:05;17.08;;;13.13;;
39600;SDS011;25297;44.758;11.310;2023-05-07T01:20:31;16.75;;;13.05;;
39600;SDS011;25297;44.758;11.310;2023-05-07T01:22:57;18.98;;;12.32;;
39600;SDS011;25297;44.758;11.310;2023-05-07T01:25:25;17.05;;;12.35;;
39600;SDS011;25297;44.758;11.310;2023-05-07T01:27:51;16.58;;;13.02;;
39600;SDS011;25297;44.758;11.310;2023-05-07T01:30:17;16.58;;;12.68;;
39600;SDS011;25297;44.758;11.310;2023-05-07T01:32:52;18.17;;;12.90;;
39600;SDS011;25297;44.758;11.310;2023-05-07T01:35:24;16.70;;;11.73;;
39600;SDS011;25297;44.758;11.310;2023-05-07T01:37:54;16.05;;;12.68;;
39600;SDS011;25297;44.758;11.310;2023-05-07T01:40:20;17.08;;;13.75;;
39600;SDS011;25297;44.758;11.310;2023-05-07T01:42:47;18.85;;;13.80;;
39600;SDS011;25297;44.758;11.310;2023-05-07T01:45:16;20.38;;;14.32;;
39600;SDS011;25297;44.758;11.310;2023-05-07T01:47:41;15.85;;;12.77;;
39600;SDS011;25297;44.758;11.310;2023-05-07T01:50:08;18.27;;;13.02;;
39600;SDS011;25297;44.758;11.310;2023-05-07T01:52:35;19.73;;;13.07;;
39600;SDS011;25297;44.758;11.310;2023-05-07T01:55:03;18.90;;;13.63;;
39600;SDS011;25297;44.758;11.310;2023-05-07T01:57:29;15.93;;;12.98;;
39600;SDS011;25297;44.758;11.310;2023-05-07T01:59:55;18.45;;;12.95;;
39600;SDS011;25297;44.758;11.310;2023-05-07T02:02:21;18.60;;;13.35;;
39600;SDS011;25297;44.758;11.310;2023-05-07T02:04:46;22.67;;;13.57;;
39600;SDS011;25297;44.758;11.310;2023-05-07T02:07:12;15.80;;;13.00;;
39600;SDS011;25297;44.758;11.310;2023-05-07T02:09:37;17.15;;;13.18;;
39600;SDS011;25297;44.758;11.310;2023-05-07T02:12:03;17.45;;;13.23;;
39600;SDS011;25297;44.758;11.310;2023-05-07T02:14:29;18.67;;;12.73;;
39600;SDS011;25297;44.758;11.310;2023-05-07T02:16:54;19.02;;;12.80;;
39600;SDS011;25297;44.758;11.310;2023-05-07T02:19:20;18.05;;;13.00;;
39600;SDS011;25297;44.758;11.310;2023-05-07T02:21:46;17.70;;;13.23;;
39600;SDS011;25297;44.758;11.310;2023-05-07T02:24:12;19.40;;;13.63;;
39600;SDS011;25297;44.758;11.310;2023-05-07T02:26:39;16.75;;;12.35;;
39600;SDS011;25297;44.758;11.310;2023-05-07T02:29:05;16.90;;;14.45;;
39600;SDS011;25297;44.758;11.310;2023-05-07T02:31:31;18.20;;;13.65;;
39600;SDS011;25297;44.758;11.310;2023-05-07T02:33:58;21.25;;;14.32;;
39600;SDS011;25297;44.758;11.310;2023-05-07T02:36:25;16.17;;;12.60;;
39600;SDS011;25297;44.758;11.310;2023-05-07T02:38:51;16.30;;;13.77;;
39600;SDS011;25297;44.758;11.310;2023-05-07T02:41:17;19.58;;;14.32;;
39600;SDS011;25297;44.758;11.310;2023-05-07T02:43:42;18.88;;;14.48;;
39600;SDS011;25297;44.758;11.310;2023-05-07T02:46:08;21.15;;;14.13;;
39600;SDS011;25297;44.758;11.310;2023-05-07T02:48:34;19.52;;;15.18;;
39600;SDS011;25297;44.758;11.310;2023-05-07T02:51:00;18.75;;;14.80;;
39600;SDS011;25297;44.758;11.310;2023-05-07T02:53:27;21.08;;;15.45;;
39600;SDS011;25297;44.758;11.310;2023-05-07T02:55:53;19.10;;;14.00;;
39600;SDS011;25297;44.758;11.310;2023-05-07T02:58:19;21.10;;;15.68;;
39600;SDS011;25297;44.758;11.310;2023-05-07T03:00:45;21.08;;;14.73;;
39600;SDS011;25297;44.758;11.310;2023-05-07T03:03:11;18.30;;;13.38;;
39600;SDS011;25297;44.758;11.310;2023-05-07T03:05:36;20.15;;;13.38;;
39600;SDS011;25297;44.758;11.310;2023-05-07T03:08:02;19.33;;;15.20;;
39600;SDS011;25297;44.758;11.310;2023-05-07T03:10:29;18.40;;;14.07;;
39600;SDS011;25297;44.758;11.310;2023-05-07T03:12:55;19.90;;;14.90;;
39600;SDS011;25297;44.758;11.310;2023-05-07T03:15:20;19.60;;;15.18;;
39600;SDS011;25297;44.758;11.310;2023-05-07T03:17:46;20.65;;;15.25;;
39600;SDS011;25297;44.758;11.310;2023-05-07T03:20:12;20.92;;;16.10;;
39600;SDS011;25297;44.758;11.310;2023-05-07T03:22:38;21.40;;;15.88;;
39600;SDS011;25297;44.758;11.310;2023-05-07T03:25:04;21.30;;;15.80;;
39600;SDS011;25297;44.758;11.310;2023-05-07T03:27:31;21.10;;;14.95;;
39600;SDS011;25297;44.758;11.310;2023-05-07T03:29:57;19.08;;;14.60;;
39600;SDS011;25297;44.758;11.310;2023-05-07T03:32:23;19.45;;;14.45;;
39600;SDS011;25297;44.758;11.310;2023-05-07T03:34:49;18.98;;;14.40;;
39600;SDS011;25297;44.758;11.310;2023-05-07T03:37:14;25.20;;;16.50;;
39600;SDS011;25297;44.758;11.310;2023-05-07T03:39:40;22.33;;;16.58;;
39600;SDS011;25297;44.758;11.310;2023-05-07T03:42:05;25.38;;;18.95;;
39600;SDS011;25297;44.758;11.310;2023-05-07T03:44:31;22.92;;;16.38;;
39600;SDS011;25297;44.758;11.310;2023-05-07T03:46:57;23.00;;;16.63;;
39600;SDS011;25297;44.758;11.310;2023-05-07T03:49:22;22.80;;;16.23;;
39600;SDS011;25297;44.758;11.310;2023-05-07T03:51:48;23.13;;;16.88;;
39600;SDS011;25297;44.758;11.310;2023-05-07T03:54:14;21.77;;;17.42;;
39600;SDS011;25297;44.758;11.310;2023-05-07T03:56:39;21.63;;;16.20;;
39600;SDS011;25297;44.758;11.310;2023-05-07T03:59:05;22.67;;;16.88;;
39600;SDS011;25297;44.758;11.310;2023-05-07T04:01:31;24.27;;;18.73;;
39600;SDS011;25297;44.758;11.310;2023-05-07T04:03:56;27.67;;;17.05;;
39600;SDS011;25297;44.758;11.310;2023-05-07T04:06:22;23.73;;;17.15;;
39600;SDS011;25297;44.758;11.310;2023-05-07T04:08:48;22.52;;;17.60;;
39600;SDS011;25297;44.758;11.310;2023-05-07T04:11:13;23.65;;;16.80;;
39600;SDS011;25297;44.758;11.310;2023-05-07T04:13:39;20.92;;;15.35;;
39600;SDS011;25297;44.758;11.310;2023-05-07T04:16:05;21.98;;;15.38;;
39600;SDS011;25297;44.758;11.310;2023-05-07T04:18:31;20.45;;;15.25;;
39600;SDS011;25297;44.758;11.310;2023-05-07T04:20:56;21.42;;;15.43;;
39600;SDS011;25297;44.758;11.310;2023-05-07T04:23:22;20.50;;;15.32;;
39600;SDS011;25297;44.758;11.310;2023-05-07T04:25:48;21.90;;;16.58;;
39600;SDS011;25297;44.758;11.310;2023-05-07T04:28:13;20.17;;;14.98;;
39600;SDS011;25297;44.758;11.310;2023-05-07T04:30:39;21.45;;;15.82;;
39600;SDS011;25297;44.758;11.310;2023-05-07T04:33:06;19.25;;;14.80;;
39600;SDS011;25297;44.758;11.310;2023-05-07T04:35:32;20.05;;;15.50;;
39600;SDS011;25297;44.758;11.310;2023-05-07T04:37:58;21.90;;;15.63;;
39600;SDS011;25297;44.758;11.310;2023-05-07T04:40:23;18.58;;;15.15;;
39600;SDS011;25297;44.758;11.310;2023-05-07T04:42:51;22.10;;;16.55;;
39600;SDS011;25297;44.758;11.310;2023-05-07T04:45:18;22.73;;;16.30;;
39600;SDS011;25297;44.758;11.310;2023-05-07T04:47:43;24.10;;;17.33;;
39600;SDS011;25297;44.758;11.310;2023-05-07T04:50:09;23.05;;;17.02;;
39600;SDS011;25297;44.758;11.310;2023-05-07T04:52:35;23.88;;;17.48;;
39600;SDS011;25297;44.758;11.310;2023-05-07T04:55:01;24.48;;;17.58;;
39600;SDS011;25297;44.758;11.310;2023-05-07T04:57:27;24.00;;;17.63;;
39600;SDS011;25297;44.758;11.310;2023-05-07T04:59:53;26.00;;;17.55;;
39600;SDS011;25297;44.758;11.310;2023-05-07T05:02:19;25.13;;;18.83;;
39600;SDS011;25297;44.758;11.310;2023-05-07T05:04:44;24.02;;;18.50;;
39600;SDS011;25297;44.758;11.310;2023-05-07T05:07:10;23.73;;;15.95;;
39600;SDS011;25297;44.758;11.310;2023-05-07T05:09:36;22.20;;;17.45;;
39600;SDS011;25297;44.758;11.310;2023-05-07T05:12:01;21.60;;;16.95;;
39600;SDS011;25297;44.758;11.310;2023-05-07T05:14:27;23.40;;;17.38;;
39600;SDS011;25297;44.758;11.310;2023-05-07T05:16:53;22.08;;;17.35;;
39600;SDS011;25297;44.758;11.310;2023-05-07T05:19:19;26.40;;;16.88;;
39600;SDS011;25297;44.758;11.310;2023-05-07T05:21:44;27.42;;;18.02;;
39600;SDS011;25297;44.758;11.310;2023-05-07T05:24:10;24.05;;;18.02;;
39600;SDS011;25297;44.758;11.310;2023-05-07T05:26:35;24.90;;;18.23;;
39600;SDS011;25297;44.758;11.310;2023-05-07T05:29:01;24.33;;;18.17;;
39600;SDS011;25297;44.758;11.310;2023-05-07T05:31:27;23.88;;;17.77;;
39600;SDS011;25297;44.758;11.310;2023-05-07T05:33:52;24.33;;;19.67;;
39600;SDS011;25297;44.758;11.310;2023-05-07T05:36:18;23.17;;;18.17;;
39600;SDS011;25297;44.758;11.310;2023-05-07T05:38:43;27.20;;;19.13;;
39600;SDS011;25297;44.758;11.310;2023-05-07T05:41:09;26.80;;;18.83;;
39600;SDS011;25297;44.758;11.310;2023-05-07T05:43:35;25.40;;;18.30;;
39600;SDS011;25297;44.758;11.310;2023-05-07T05:46:01;25.88;;;19.55;;
39600;SDS011;25297;44.758;11.310;2023-05-07T05:48:28;29.00;;;20.38;;
39600;SDS011;25297;44.758;11.310;2023-05-07T05:50:54;29.10;;;21.80;;
39600;SDS011;25297;44.758;11.310;2023-05-07T05:53:19;29.83;;;22.02;;
39600;SDS011;25297;44.758;11.310;2023-05-07T05:55:45;28.38;;;21.80;;
39600;SDS011;25297;44.758;11.310;2023-05-07T05:58:11;30.70;;;21.70;;
39600;SDS011;25297;44.758;11.310;2023-05-07T06:00:37;28.55;;;21.80;;
39600;SDS011;25297;44.758;11.310;2023-05-07T06:03:02;29.83;;;21.73;;
39600;SDS011;25297;44.758;11.310;2023-05-07T06:05:28;30.27;;;23.33;;
39600;SDS011;25297;44.758;11.310;2023-05-07T06:07:54;30.63;;;22.30;;
39600;SDS011;25297;44.758;11.310;2023-05-07T06:10:19;31.25;;;23.65;;
39600;SDS011;25297;44.758;11.310;2023-05-07T06:12:45;31.98;;;22.30;;
39600;SDS011;25297;44.758;11.310;2023-05-07T06:15:11;34.42;;;23.63;;
39600;SDS011;25297;44.758;11.310;2023-05-07T06:17:37;32.67;;;22.85;;
39600;SDS011;25297;44.758;11.310;2023-05-07T06:20:02;30.50;;;22.85;;
39600;SDS011;25297;44.758;11.310;2023-05-07T06:22:28;30.15;;;21.40;;
39600;SDS011;25297;44.758;11.310;2023-05-07T06:24:54;31.92;;;23.08;;
39600;SDS011;25297;44.758;11.310;2023-05-07T06:27:19;37.58;;;23.77;;
39600;SDS011;25297;44.758;11.310;2023-05-07T06:29:45;34.28;;;23.05;;
39600;SDS011;25297;44.758;11.310;2023-05-07T06:32:13;31.98;;;23.63;;
39600;SDS011;25297;44.758;11.310;2023-05-07T06:34:39;33.22;;;22.75;;
39600;SDS011;25297;44.758;11.310;2023-05-07T06:37:06;31.88;;;22.77;;
39600;SDS011;25297;44.758;11.310;2023-05-07T06:39:32;30.52;;;22.15;;
39600;SDS011;25297;44.758;11.310;2023-05-07T06:41:59;30.58;;;23.20;;
39600;SDS011;25297;44.758;11.310;2023-05-07T06:44:25;33.83;;;23.30;;
39600;SDS011;25297;44.758;11.310;2023-05-07T06:46:51;30.50;;;22.52;;
39600;SDS011;25297;44.758;11.310;2023-05-07T06:49:16;30.50;;;21.83;;
39600;SDS011;25297;44.758;11.310;2023-05-07T06:51:42;30.65;;;23.05;;
39600;SDS011;25297;44.758;11.310;2023-05-07T06:54:07;32.30;;;23.10;;
39600;SDS011;25297;44.758;11.310;2023-05-07T06:56:33;31.38;;;23.02;;
39600;SDS011;25297;44.758;11.310;2023-05-07T06:58:59;29.75;;;22.08;;
39600;SDS011;25297;44.758;11.310;2023-05-07T07:01:25;31.95;;;22.77;;
39600;SDS011;25297;44.758;11.310;2023-05-07T07:03:51;32.55;;;21.75;;
39600;SDS011;25297;44.758;11.310;2023-05-07T07:06:17;28.40;;;21.30;;
39600;SDS011;25297;44.758;11.310;2023-05-07T07:08:42;30.48;;;22.08;;
39600;SDS011;25297;44.758;11.310;2023-05-07T07:11:08;29.95;;;22.38;;
39600;SDS011;25297;44.758;11.310;2023-05-07T07:13:35;28.15;;;20.60;;
39600;SDS011;25297;44.758;11.310;2023-05-07T07:16:00;26.98;;;20.55;;
39600;SDS011;25297;44.758;11.310;2023-05-07T07:18:26;28.98;;;19.77;;
39600;SDS011;25297;44.758;11.310;2023-05-07T07:20:52;29.85;;;21.63;;
39600;SDS011;25297;44.758;11.310;2023-05-07T07:23:18;29.52;;;21.63;;
39600;SDS011;25297;44.758;11.310;2023-05-07T07:25:43;30.95;;;20.83;;
39600;SDS011;25297;44.758;11.310;2023-05-07T07:28:09;26.63;;;19.83;;
39600;SDS011;25297;44.758;11.310;2023-05-07T07:30:36;28.58;;;20.08;;
39600;SDS011;25297;44.758;11.310;2023-05-07T07:33:02;29.15;;;20.60;;
39600;SDS011;25297;44.758;11.310;2023-05-07T07:35:28;28.13;;;20.73;;
39600;SDS011;25297;44.758;11.310;2023-05-07T07:37:55;26.58;;;20.23;;
39600;SDS011;25297;44.758;11.310;2023-05-07T07:40:20;26.70;;;20.23;;
39600;SDS011;25297;44.758;11.310;2023-05-07T07:42:46;26.73;;;20.17;;
39600;SDS011;25297;44.758;11.310;2023-05-07T07:45:12;25.50;;;18.98;;
39600;SDS011;25297;44.758;11.310;2023-05-07T07:47:38;27.25;;;19.63;;
39600;SDS011;25297;44.758;11.310;2023-05-07T07:50:05;27.13;;;20.30;;
39600;SDS011;25297;44.758;11.310;2023-05-07T07:52:31;27.27;;;19.00;;
39600;SDS011;25297;44.758;11.310;2023-05-07T07:54:57;24.45;;;18.58;;
39600;SDS011;25297;44.758;11.310;2023-05-07T07:57:22;24.58;;;18.13;;
39600;SDS011;25297;44.758;11.310;2023-05-07T07:59:48;27.85;;;21.33;;
39600;SDS011;25297;44.758;11.310;2023-05-07T08:02:15;28.95;;;20.20;;
39600;SDS011;25297;44.758;11.310;2023-05-07T08:04:40;25.50;;;18.98;;
39600;SDS011;25297;44.758;11.310;2023-05-07T08:07:08;25.00;;;19.77;;
39600;SDS011;25297;44.758;11.310;2023-05-07T08:09:34;27.02;;;19.85;;
39600;SDS011;25297;44.758;11.310;2023-05-07T08:12:00;23.73;;;19.25;;
39600;SDS011;25297;44.758;11.310;2023-05-07T08:14:26;26.95;;;19.90;;
39600;SDS011;25297;44.758;11.310;2023-05-07T08:16:53;25.08;;;18.92;;
39600;SDS011;25297;44.758;11.310;2023-05-07T08:19:19;21.70;;;17.85;;
39600;SDS011;25297;44.758;11.310;2023-05-07T08:21:45;21.90;;;17.02;;
39600;SDS011;25297;44.758;11.310;2023-05-07T08:24:12;25.02;;;17.30;;
39600;SDS011;25297;44.758;11.310;2023-05-07T08:26:39;24.10;;;17.45;;
39600;SDS011;25297;44.758;11.310;2023-05-07T08:29:05;21.58;;;17.27;;
39600;SDS011;25297;44.758;11.310;2023-05-07T08:31:30;21.45;;;16.05;;
39600;SDS011;25297;44.758;11.310;2023-05-07T08:33:57;22.23;;;16.50;;
39600;SDS011;25297;44.758;11.310;2023-05-07T08:36:23;20.88;;;16.90;;
39600;SDS011;25297;44.758;11.310;2023-05-07T08:38:48;23.70;;;18.27;;
39600;SDS011;25297;44.758;11.310;2023-05-07T08:41:14;23.52;;;16.85;;
39600;SDS011;25297;44.758;11.310;2023-05-07T08:43:41;21.65;;;16.17;;
39600;SDS011;25297;44.758;11.310;2023-05-07T08:46:09;18.35;;;13.98;;
39600;SDS011;25297;44.758;11.310;2023-05-07T08:48:36;20.95;;;14.25;;
39600;SDS011;25297;44.758;11.310;2023-05-07T08:51:02;25.35;;;16.63;;
39600;SDS011;25297;44.758;11.310;2023-05-07T08:53:28;23.20;;;16.48;;
39600;SDS011;25297;44.758;11.310;2023-05-07T08:55:54;18.65;;;14.43;;
39600;SDS011;25297;44.758;11.310;2023-05-07T08:58:20;22.00;;;15.50;;
39600;SDS011;25297;44.758;11.310;2023-05-07T09:00:46;23.67;;;16.98;;
39600;SDS011;25297;44.758;11.310;2023-05-07T09:03:12;20.58;;;16.23;;
39600;SDS011;25297;44.758;11.310;2023-05-07T09:05:39;22.98;;;17.13;;
39600;SDS011;25297;44.758;11.310;2023-05-07T09:08:05;23.05;;;16.98;;
39600;SDS011;25297;44.758;11.310;2023-05-07T09:10:33;21.17;;;16.65;;
39600;SDS011;25297;44.758;11.310;2023-05-07T09:12:59;27.83;;;19.17;;
39600;SDS011;25297;44.758;11.310;2023-05-07T09:15:25;21.00;;;16.42;;
39600;SDS011;25297;44.758;11.310;2023-05-07T09:17:51;21.13;;;16.23;;
39600;SDS011;25297;44.758;11.310;2023-05-07T09:20:17;23.48;;;17.45;;
39600;SDS011;25297;44.758;11.310;2023-05-07T09:22:43;24.35;;;16.65;;
39600;SDS011;25297;44.758;11.310;2023-05-07T09:25:09;22.27;;;17.27;;
39600;SDS011;25297;44.758;11.310;2023-05-07T09:27:35;19.63;;;15.30;;
39600;SDS011;25297;44.758;11.310;2023-05-07T09:30:04;19.58;;;16.30;;
39600;SDS011;25297;44.758;11.310;2023-05-07T09:32:34;21.30;;;14.20;;
39600;SDS011;25297;44.758;11.310;2023-05-07T09:35:02;18.98;;;14.38;;
39600;SDS011;25297;44.758;11.310;2023-05-07T09:37:30;17.92;;;13.13;;
39600;SDS011;25297;44.758;11.310;2023-05-07T09:39:56;16.65;;;13.32;;
39600;SDS011;25297;44.758;11.310;2023-05-07T09:42:23;18.27;;;13.50;;
39600;SDS011;25297;44.758;11.310;2023-05-07T09:44:51;15.25;;;12.57;;
39600;SDS011;25297;44.758;11.310;2023-05-07T09:47:18;16.08;;;13.05;;
39600;SDS011;25297;44.758;11.310;2023-05-07T09:49:46;14.55;;;12.45;;
39600;SDS011;25297;44.758;11.310;2023-05-07T09:52:13;16.25;;;11.43;;
39600;SDS011;25297;44.758;11.310;2023-05-07T09:54:40;12.75;;;9.75;;
39600;SDS011;25297;44.758;11.310;2023-05-07T09:57:09;13.15;;;9.57;;
39600;SDS011;25297;44.758;11.310;2023-05-07T09:59:37;11.73;;;8.77;;
39600;SDS011;25297;44.758;11.310;2023-05-07T10:02:04;11.32;;;8.13;;
39600;SDS011;25297;44.758;11.310;2023-05-07T10:04:31;12.25;;;9.10;;
39600;SDS011;25297;44.758;11.310;2023-05-07T10:06:57;9.57;;;7.57;;
39600;SDS011;25297;44.758;11.310;2023-05-07T10:09:23;10.27;;;7.63;;
39600;SDS011;25297;44.758;11.310;2023-05-07T10:11:51;8.00;;;7.10;;
39600;SDS011;25297;44.758;11.310;2023-05-07T10:14:17;9.25;;;7.07;;
39600;SDS011;25297;44.758;11.310;2023-05-07T10:16:45;8.48;;;7.07;;
39600;SDS011;25297;44.758;11.310;2023-05-07T10:19:12;7.90;;;6.65;;
39600;SDS011;25297;44.758;11.310;2023-05-07T10:21:39;7.57;;;6.78;;
39600;SDS011;25297;44.758;11.310;2023-05-07T10:24:25;10.48;;;6.82;;
39600;SDS011;25297;44.758;11.310;2023-05-07T10:26:59;9.07;;;6.75;;
39600;SDS011;25297;44.758;11.310;2023-05-07T10:34:50;7.90;;;5.45;;
39600;SDS011;25297;44.758;11.310;2023-05-07T10:37:20;7.85;;;6.32;;
39600;SDS011;25297;44.758;11.310;2023-05-07T10:39:46;7.82;;;6.47;;
39600;SDS011;25297;44.758;11.310;2023-05-07T10:42:13;8.32;;;5.90;;
39600;SDS011;25297;44.758;11.310;2023-05-07T10:44:39;14.20;;;7.05;;
39600;SDS011;25297;44.758;11.310;2023-05-07T10:47:06;9.63;;;6.82;;
39600;SDS011;25297;44.758;11.310;2023-05-07T10:50:21;7.53;;;6.20;;
39600;SDS011;25297;44.758;11.310;2023-05-07T10:52:30;7.13;;;6.25;;
39600;SDS011;25297;44.758;11.310;2023-05-07T10:55:18;10.75;;;7.13;;
39600;SDS011;25297;44.758;11.310;2023-05-07T10:57:42;9.85;;;6.95;;
39600;SDS011;25297;44.758;11.310;2023-05-07T11:05:28;8.82;;;6.47;;
39600;SDS011;25297;44.758;11.310;2023-05-07T11:07:55;9.60;;;6.53;;
39600;SDS011;25297;44.758;11.310;2023-05-07T11:10:41;7.35;;;5.80;;
39600;SDS011;25297;44.758;11.310;2023-05-07T11:13:11;6.32;;;5.30;;
39600;SDS011;25297;44.758;11.310;2023-05-07T11:15:38;9.20;;;5.00;;
39600;SDS011;25297;44.758;11.310;2023-05-07T11:18:15;8.27;;;5.93;;
39600;SDS011;25297;44.758;11.310;2023-05-07T11:26:07;9.55;;;5.57;;
39600;SDS011;25297;44.758;11.310;2023-05-07T11:28:38;5.40;;;4.25;;
39600;SDS011;25297;44.758;11.310;2023-05-07T11:31:07;7.10;;;4.40;;
39600;SDS011;25297;44.758;11.310;2023-05-07T11:33:34;5.18;;;4.50;;
39600;SDS011;25297;44.758;11.310;2023-05-07T11:36:02;7.60;;;5.30;;
39600;SDS011;25297;44.758;11.310;2023-05-07T11:38:28;9.27;;;5.20;;
39600;SDS011;25297;44.758;11.310;2023-05-07T11:40:56;6.53;;;4.68;;
39600;SDS011;25297;44.758;11.310;2023-05-07T11:43:25;6.05;;;4.78;;
39600;SDS011;25297;44.758;11.310;2023-05-07T11:45:51;5.20;;;4.10;;
39600;SDS011;25297;44.758;11.310;2023-05-07T11:48:17;4.70;;;4.00;;
39600;SDS011;25297;44.758;11.310;2023-05-07T11:50:53;5.40;;;4.82;;
39600;SDS011;25297;44.758;11.310;2023-05-07T11:53:37;7.18;;;4.70;;
39600;SDS011;25297;44.758;11.310;2023-05-07T11:56:07;6.35;;;5.13;;
39600;SDS011;25297;44.758;11.310;2023-05-07T11:58:37;9.27;;;3.73;;
39600;SDS011;25297;44.758;11.310;2023-05-07T12:01:03;6.05;;;4.47;;
39600;SDS011;25297;44.758;11.310;2023-05-07T12:03:29;4.20;;;3.80;;
39600;SDS011;25297;44.758;11.310;2023-05-07T12:05:54;4.38;;;3.90;;
39600;SDS011;25297;44.758;11.310;2023-05-07T12:08:20;5.47;;;4.53;;
39600;SDS011;25297;44.758;11.310;2023-05-07T12:10:48;5.78;;;4.25;;
39600;SDS011;25297;44.758;11.310;2023-05-07T12:13:18;6.57;;;4.18;;
39600;SDS011;25297;44.758;11.310;2023-05-07T12:15:45;4.20;;;3.53;;
39600;SDS011;25297;44.758;11.310;2023-05-07T12:18:11;7.30;;;4.10;;
39600;SDS011;25297;44.758;11.310;2023-05-07T12:20:38;5.65;;;4.30;;
39600;SDS011;25297;44.758;11.310;2023-05-07T12:23:04;4.18;;;3.78;;
39600;SDS011;25297;44.758;11.310;2023-05-07T12:25:40;8.90;;;4.13;;
39600;SDS011;25297;44.758;11.310;2023-05-07T12:28:12;4.22;;;3.83;;
39600;SDS011;25297;44.758;11.310;2023-05-07T12:30:42;10.73;;;5.35;;
39600;SDS011;25297;44.758;11.310;2023-05-07T12:33:09;7.28;;;4.07;;
39600;SDS011;25297;44.758;11.310;2023-05-07T12:35:39;6.03;;;3.72;;
39600;SDS011;25297;44.758;11.310;2023-05-07T12:38:09;4.28;;;3.85;;
39600;SDS011;25297;44.758;11.310;2023-05-07T12:43:06;6.57;;;3.35;;
39600;SDS011;25297;44.758;11.310;2023-05-07T12:45:35;3.40;;;3.10;;
39600;SDS011;25297;44.758;11.310;2023-05-07T12:48:03;5.00;;;3.75;;
39600;SDS011;25297;44.758;11.310;2023-05-07T12:50:32;5.03;;;3.78;;
39600;SDS011;25297;44.758;11.310;2023-05-07T12:52:58;5.97;;;3.33;;
39600;SDS011;25297;44.758;11.310;2023-05-07T12:55:24;7.30;;;3.72;;
39600;SDS011;25297;44.758;11.310;2023-05-07T12:57:50;5.10;;;3.33;;
39600;SDS011;25297;44.758;11.310;2023-05-07T13:00:17;5.78;;;3.67;;
39600;SDS011;25297;44.758;11.310;2023-05-07T13:02:58;4.60;;;3.50;;
39600;SDS011;25297;44.758;11.310;2023-05-07T13:05:23;4.10;;;3.58;;
39600;SDS011;25297;44.758;11.310;2023-05-07T13:07:55;3.42;;;3.13;;
39600;SDS011;25297;44.758;11.310;2023-05-07T13:10:22;6.30;;;3.53;;
39600;SDS011;25297;44.758;11.310;2023-05-07T13:12:48;5.28;;;2.90;;
39600;SDS011;25297;44.758;11.310;2023-05-07T13:15:15;4.00;;;3.05;;
39600;SDS011;25297;44.758;11.310;2023-05-07T13:17:41;3.55;;;3.25;;
39600;SDS011;25297;44.758;11.310;2023-05-07T13:20:08;3.92;;;3.40;;
39600;SDS011;25297;44.758;11.310;2023-05-07T13:22:35;5.65;;;3.53;;
39600;SDS011;25297;44.758;11.310;2023-05-07T13:25:01;4.53;;;3.13;;
39600;SDS011;25297;44.758;11.310;2023-05-07T13:27:26;5.00;;;3.05;;
39600;SDS011;25297;44.758;11.310;2023-05-07T13:29:52;3.83;;;3.10;;
39600;SDS011;25297;44.758;11.310;2023-05-07T13:32:18;5.47;;;3.60;;
39600;SDS011;25297;44.758;11.310;2023-05-07T13:34:43;4.20;;;3.72;;
39600;SDS011;25297;44.758;11.310;2023-05-07T13:37:09;5.97;;;4.65;;
39600;SDS011;25297;44.758;11.310;2023-05-07T13:39:35;5.32;;;4.05;;
39600;SDS011;25297;44.758;11.310;2023-05-07T13:42:01;5.22;;;3.53;;
39600;SDS011;25297;44.758;11.310;2023-05-07T13:44:27;4.55;;;4.03;;
39600;SDS011;25297;44.758;11.310;2023-05-07T13:46:52;7.32;;;3.78;;
39600;SDS011;25297;44.758;11.310;2023-05-07T13:49:18;8.90;;;4.32;;
39600;SDS011;25297;44.758;11.310;2023-05-07T13:51:44;5.40;;;3.83;;
39600;SDS011;25297;44.758;11.310;2023-05-07T13:54:10;6.95;;;4.00;;
39600;SDS011;25297;44.758;11.310;2023-05-07T13:56:36;4.50;;;4.10;;
39600;SDS011;25297;44.758;11.310;2023-05-07T13:59:01;8.70;;;3.75;;
39600;SDS011;25297;44.758;11.310;2023-05-07T14:01:27;4.65;;;3.72;;
39600;SDS011;25297;44.758;11.310;2023-05-07T14:03:53;5.50;;;4.38;;
39600;SDS011;25297;44.758;11.310;2023-05-07T14:06:18;4.97;;;4.22;;
39600;SDS011;25297;44.758;11.310;2023-05-07T14:08:44;5.57;;;4.15;;
39600;SDS011;25297;44.758;11.310;2023-05-07T14:11:10;5.80;;;4.28;;
39600;SDS011;25297;44.758;11.310;2023-05-07T14:13:35;6.13;;;4.28;;
39600;SDS011;25297;44.758;11.310;2023-05-07T14:16:01;5.70;;;4.35;;
39600;SDS011;25297;44.758;11.310;2023-05-07T14:18:27;4.60;;;3.63;;
39600;SDS011;25297;44.758;11.310;2023-05-07T14:20:54;5.53;;;3.97;;
39600;SDS011;25297;44.758;11.310;2023-05-07T14:23:19;4.75;;;3.60;;
39600;SDS011;25297;44.758;11.310;2023-05-07T14:28:16;4.38;;;3.38;;
39600;SDS011;25297;44.758;11.310;2023-05-07T14:30:41;7.65;;;3.55;;
39600;SDS011;25297;44.758;11.310;2023-05-07T14:33:07;5.78;;;3.70;;